sensor_id;sensor_type;location;lat;lon;timestamp;P1;durP1;ratioP1;P2;durP2;ratioP2
12005;SDS011;6062;47.294;12.182;2022-12-18T00:01:13;0.60;;;0.60;;
12005;SDS011;6062;47.294;12.182;2022-12-18T00:03:43;0.60;;;0.60;;
12005;SDS011;6062;47.294;12.182;2022-12-18T00:06:08;0.70;;;0.70;;
12005;SDS011;6062;47.294;12.182;2022-12-18T00:08:34;0.50;;;0.50;;
12005;SDS011;6062;47.294;12.182;2022-12-18T00:11:07;0.40;;;0.40;;
12005;SDS011;6062;47.294;12.182;2022-12-18T00:13:36;0.70;;;0.70;;
12005;SDS011;6062;47.294;12.182;2022-12-18T00:16:03;1.17;;;0.60;;
12005;SDS011;6062;47.294;12.182;2022-12-18T00:18:40;0.50;;;0.50;;
12005;SDS011;6062;47.294;12.182;2022-12-18T00:21:07;0.40;;;0.40;;
12005;SDS011;6062;47.294;12.182;2022-12-18T00:23:36;0.50;;;0.50;;
12005;SDS011;6062;47.294;12.182;2022-12-18T00:26:07;0.87;;;0.50;;
12005;SDS011;6062;47.294;12.182;2022-12-18T00:28:51;0.50;;;0.50;;
12005;SDS011;6062;47.294;12.182;2022-12-18T00:31:21;0.47;;;0.47;;
12005;SDS011;6062;47.294;12.182;2022-12-18T00:33:49;0.50;;;0.50;;
12005;SDS011;6062;47.294;12.182;2022-12-18T00:36:17;0.50;;;0.50;;
12005;SDS011;6062;47.294;12.182;2022-12-18T00:38:45;0.50;;;0.50;;
12005;SDS011;6062;47.294;12.182;2022-12-18T00:41:12;2.13;;;0.50;;
12005;SDS011;6062;47.294;12.182;2022-12-18T00:44:04;0.50;;;0.50;;
12005;SDS011;6062;47.294;12.182;2022-12-18T00:46:32;0.40;;;0.40;;
12005;SDS011;6062;47.294;12.182;2022-12-18T00:48:58;0.40;;;0.40;;
12005;SDS011;6062;47.294;12.182;2022-12-18T00:51:24;0.40;;;0.40;;
12005;SDS011;6062;47.294;12.182;2022-12-18T00:53:51;0.50;;;0.50;;
12005;SDS011;6062;47.294;12.182;2022-12-18T00:56:17;0.50;;;0.50;;
12005;SDS011;6062;47.294;12.182;2022-12-18T00:58:43;0.43;;;0.43;;
12005;SDS011;6062;47.294;12.182;2022-12-18T01:01:09;0.50;;;0.50;;
12005;SDS011;6062;47.294;12.182;2022-12-18T01:03:34;0.50;;;0.50;;
12005;SDS011;6062;47.294;12.182;2022-12-18T01:06:05;0.50;;;0.50;;
12005;SDS011;6062;47.294;12.182;2022-12-18T01:08:33;0.50;;;0.50;;
12005;SDS011;6062;47.294;12.182;2022-12-18T01:10:59;0.60;;;0.60;;
12005;SDS011;6062;47.294;12.182;2022-12-18T01:13:26;0.50;;;0.50;;
12005;SDS011;6062;47.294;12.182;2022-12-18T01:15:52;0.60;;;0.50;;
12005;SDS011;6062;47.294;12.182;2022-12-18T01:18:17;0.43;;;0.43;;
12005;SDS011;6062;47.294;12.182;2022-12-18T01:20:43;0.40;;;0.40;;
12005;SDS011;6062;47.294;12.182;2022-12-18T01:23:09;0.40;;;0.40;;
12005;SDS011;6062;47.294;12.182;2022-12-18T01:25:35;0.57;;;0.57;;
12005;SDS011;6062;47.294;12.182;2022-12-18T01:28:01;0.50;;;0.50;;
12005;SDS011;6062;47.294;12.182;2022-12-18T01:30:28;0.50;;;0.50;;
12005;SDS011;6062;47.294;12.182;2022-12-18T01:32:53;0.50;;;0.50;;
12005;SDS011;6062;47.294;12.182;2022-12-18T01:35:20;0.40;;;0.40;;
12005;SDS011;6062;47.294;12.182;2022-12-18T01:37:45;0.50;;;0.50;;
12005;SDS011;6062;47.294;12.182;2022-12-18T01:40:11;0.53;;;0.53;;
12005;SDS011;6062;47.294;12.182;2022-12-18T01:42:37;0.50;;;0.50;;
12005;SDS011;6062;47.294;12.182;2022-12-18T01:45:08;0.40;;;0.40;;
12005;SDS011;6062;47.294;12.182;2022-12-18T01:47:51;0.50;;;0.50;;
12005;SDS011;6062;47.294;12.182;2022-12-18T01:50:22;0.50;;;0.50;;
12005;SDS011;6062;47.294;12.182;2022-12-18T01:52:57;0.50;;;0.50;;
12005;SDS011;6062;47.294;12.182;2022-12-18T01:55:49;0.50;;;0.50;;
12005;SDS011;6062;47.294;12.182;2022-12-18T01:58:19;0.50;;;0.50;;
12005;SDS011;6062;47.294;12.182;2022-12-18T02:00:54;0.50;;;0.50;;
12005;SDS011;6062;47.294;12.182;2022-12-18T02:03:20;0.50;;;0.50;;
12005;SDS011;6062;47.294;12.182;2022-12-18T02:05:47;0.50;;;0.50;;
12005;SDS011;6062;47.294;12.182;2022-12-18T02:08:30;0.60;;;0.60;;
12005;SDS011;6062;47.294;12.182;2022-12-18T02:14:18;0.40;;;0.40;;
12005;SDS011;6062;47.294;12.182;2022-12-18T02:17:07;0.70;;;0.70;;
12005;SDS011;6062;47.294;12.182;2022-12-18T02:26:12;0.40;;;0.40;;
12005;SDS011;6062;47.294;12.182;2022-12-18T02:28:46;1.27;;;0.60;;
12005;SDS011;6062;47.294;12.182;2022-12-18T02:31:21;0.50;;;0.50;;
12005;SDS011;6062;47.294;12.182;2022-12-18T02:33:54;0.50;;;0.50;;
12005;SDS011;6062;47.294;12.182;2022-12-18T02:36:25;0.40;;;0.40;;
12005;SDS011;6062;47.294;12.182;2022-12-18T02:38:53;0.50;;;0.50;;
12005;SDS011;6062;47.294;12.182;2022-12-18T02:41:21;0.40;;;0.40;;
12005;SDS011;6062;47.294;12.182;2022-12-18T02:43:53;0.50;;;0.50;;
12005;SDS011;6062;47.294;12.182;2022-12-18T02:46:39;0.63;;;0.60;;
12005;SDS011;6062;47.294;12.182;2022-12-18T02:52:13;0.57;;;0.57;;
12005;SDS011;6062;47.294;12.182;2022-12-18T02:57:54;0.50;;;0.50;;
12005;SDS011;6062;47.294;12.182;2022-12-18T03:00:51;0.60;;;0.60;;
12005;SDS011;6062;47.294;12.182;2022-12-18T03:03:26;0.63;;;0.50;;
12005;SDS011;6062;47.294;12.182;2022-12-18T03:09:01;0.60;;;0.60;;
12005;SDS011;6062;47.294;12.182;2022-12-18T03:11:36;0.60;;;0.60;;
12005;SDS011;6062;47.294;12.182;2022-12-18T03:14:28;0.70;;;0.70;;
12005;SDS011;6062;47.294;12.182;2022-12-18T03:16:57;0.70;;;0.70;;
12005;SDS011;6062;47.294;12.182;2022-12-18T03:19:31;0.60;;;0.60;;
12005;SDS011;6062;47.294;12.182;2022-12-18T03:22:00;0.60;;;0.60;;
12005;SDS011;6062;47.294;12.182;2022-12-18T03:24:29;0.47;;;0.47;;
12005;SDS011;6062;47.294;12.182;2022-12-18T03:27:00;1.50;;;0.60;;
12005;SDS011;6062;47.294;12.182;2022-12-18T03:29:32;0.57;;;0.50;;
12005;SDS011;6062;47.294;12.182;2022-12-18T03:32:10;0.60;;;0.60;;
12005;SDS011;6062;47.294;12.182;2022-12-18T03:34:46;0.50;;;0.50;;
12005;SDS011;6062;47.294;12.182;2022-12-18T03:37:16;0.60;;;0.60;;
12005;SDS011;6062;47.294;12.182;2022-12-18T03:39:42;0.50;;;0.50;;
12005;SDS011;6062;47.294;12.182;2022-12-18T03:42:15;0.57;;;0.50;;
12005;SDS011;6062;47.294;12.182;2022-12-18T03:48:02;0.70;;;0.60;;
12005;SDS011;6062;47.294;12.182;2022-12-18T03:51:02;0.60;;;0.60;;
12005;SDS011;6062;47.294;12.182;2022-12-18T03:53:41;0.50;;;0.50;;
12005;SDS011;6062;47.294;12.182;2022-12-18T03:56:19;0.53;;;0.53;;
12005;SDS011;6062;47.294;12.182;2022-12-18T03:58:48;0.60;;;0.60;;
12005;SDS011;6062;47.294;12.182;2022-12-18T04:01:17;0.43;;;0.43;;
12005;SDS011;6062;47.294;12.182;2022-12-18T04:03:47;0.50;;;0.50;;
12005;SDS011;6062;47.294;12.182;2022-12-18T04:06:16;0.67;;;0.67;;
12005;SDS011;6062;47.294;12.182;2022-12-18T04:08:42;0.50;;;0.50;;
12005;SDS011;6062;47.294;12.182;2022-12-18T04:11:09;0.57;;;0.57;;
12005;SDS011;6062;47.294;12.182;2022-12-18T04:13:36;0.40;;;0.40;;
12005;SDS011;6062;47.294;12.182;2022-12-18T04:16:03;0.50;;;0.50;;
12005;SDS011;6062;47.294;12.182;2022-12-18T04:18:29;0.60;;;0.60;;
12005;SDS011;6062;47.294;12.182;2022-12-18T04:20:55;0.50;;;0.50;;
12005;SDS011;6062;47.294;12.182;2022-12-18T04:23:21;0.60;;;0.60;;
12005;SDS011;6062;47.294;12.182;2022-12-18T04:25:48;0.47;;;0.47;;
12005;SDS011;6062;47.294;12.182;2022-12-18T04:28:13;0.50;;;0.50;;
12005;SDS011;6062;47.294;12.182;2022-12-18T04:30:39;1.70;;;0.60;;
12005;SDS011;6062;47.294;12.182;2022-12-18T04:33:09;0.50;;;0.50;;
12005;SDS011;6062;47.294;12.182;2022-12-18T04:35:36;0.60;;;0.60;;
12005;SDS011;6062;47.294;12.182;2022-12-18T04:38:02;0.70;;;0.70;;
12005;SDS011;6062;47.294;12.182;2022-12-18T04:40:28;0.60;;;0.60;;
12005;SDS011;6062;47.294;12.182;2022-12-18T04:42:53;0.80;;;0.80;;
12005;SDS011;6062;47.294;12.182;2022-12-18T04:45:19;0.70;;;0.70;;
12005;SDS011;6062;47.294;12.182;2022-12-18T04:47:45;0.63;;;0.63;;
12005;SDS011;6062;47.294;12.182;2022-12-18T04:50:10;0.83;;;0.70;;
12005;SDS011;6062;47.294;12.182;2022-12-18T04:52:36;0.60;;;0.53;;
12005;SDS011;6062;47.294;12.182;2022-12-18T04:55:02;0.50;;;0.50;;
12005;SDS011;6062;47.294;12.182;2022-12-18T04:57:28;0.80;;;0.60;;
12005;SDS011;6062;47.294;12.182;2022-12-18T04:59:53;0.50;;;0.50;;
12005;SDS011;6062;47.294;12.182;2022-12-18T05:02:19;0.57;;;0.57;;
12005;SDS011;6062;47.294;12.182;2022-12-18T05:04:45;0.50;;;0.50;;
12005;SDS011;6062;47.294;12.182;2022-12-18T05:07:10;0.60;;;0.60;;
12005;SDS011;6062;47.294;12.182;2022-12-18T05:09:36;0.57;;;0.57;;
12005;SDS011;6062;47.294;12.182;2022-12-18T05:12:01;0.60;;;0.60;;
12005;SDS011;6062;47.294;12.182;2022-12-18T05:14:27;0.50;;;0.50;;
12005;SDS011;6062;47.294;12.182;2022-12-18T05:16:54;0.63;;;0.60;;
12005;SDS011;6062;47.294;12.182;2022-12-18T05:19:20;0.60;;;0.60;;
12005;SDS011;6062;47.294;12.182;2022-12-18T05:21:46;0.60;;;0.60;;
12005;SDS011;6062;47.294;12.182;2022-12-18T05:24:11;0.60;;;0.60;;
12005;SDS011;6062;47.294;12.182;2022-12-18T05:26:37;0.60;;;0.60;;
12005;SDS011;6062;47.294;12.182;2022-12-18T05:29:03;0.60;;;0.60;;
12005;SDS011;6062;47.294;12.182;2022-12-18T05:31:29;0.60;;;0.60;;
12005;SDS011;6062;47.294;12.182;2022-12-18T05:33:54;0.47;;;0.47;;
12005;SDS011;6062;47.294;12.182;2022-12-18T05:36:20;0.60;;;0.60;;
12005;SDS011;6062;47.294;12.182;2022-12-18T05:38:46;0.60;;;0.60;;
12005;SDS011;6062;47.294;12.182;2022-12-18T05:41:11;0.67;;;0.67;;
12005;SDS011;6062;47.294;12.182;2022-12-18T05:43:38;0.50;;;0.50;;
12005;SDS011;6062;47.294;12.182;2022-12-18T05:46:05;0.50;;;0.50;;
12005;SDS011;6062;47.294;12.182;2022-12-18T05:48:36;0.50;;;0.50;;
12005;SDS011;6062;47.294;12.182;2022-12-18T05:51:05;1.07;;;0.63;;
12005;SDS011;6062;47.294;12.182;2022-12-18T05:53:39;0.50;;;0.50;;
12005;SDS011;6062;47.294;12.182;2022-12-18T05:56:07;0.63;;;0.63;;
12005;SDS011;6062;47.294;12.182;2022-12-18T05:58:37;0.67;;;0.67;;
12005;SDS011;6062;47.294;12.182;2022-12-18T06:01:06;1.03;;;0.70;;
12005;SDS011;6062;47.294;12.182;2022-12-18T06:03:38;0.80;;;0.80;;
12005;SDS011;6062;47.294;12.182;2022-12-18T06:06:12;0.70;;;0.70;;
12005;SDS011;6062;47.294;12.182;2022-12-18T06:08:39;0.70;;;0.70;;
12005;SDS011;6062;47.294;12.182;2022-12-18T06:11:04;0.70;;;0.70;;
12005;SDS011;6062;47.294;12.182;2022-12-18T06:13:30;0.70;;;0.70;;
12005;SDS011;6062;47.294;12.182;2022-12-18T06:15:56;0.80;;;0.80;;
12005;SDS011;6062;47.294;12.182;2022-12-18T06:18:21;0.60;;;0.60;;
12005;SDS011;6062;47.294;12.182;2022-12-18T06:20:54;0.60;;;0.60;;
12005;SDS011;6062;47.294;12.182;2022-12-18T06:23:21;0.60;;;0.60;;
12005;SDS011;6062;47.294;12.182;2022-12-18T06:25:47;0.60;;;0.60;;
12005;SDS011;6062;47.294;12.182;2022-12-18T06:28:13;0.53;;;0.53;;
12005;SDS011;6062;47.294;12.182;2022-12-18T06:30:38;0.50;;;0.50;;
12005;SDS011;6062;47.294;12.182;2022-12-18T06:33:04;0.60;;;0.60;;
12005;SDS011;6062;47.294;12.182;2022-12-18T06:35:29;0.50;;;0.50;;
12005;SDS011;6062;47.294;12.182;2022-12-18T06:37:57;1.03;;;0.60;;
12005;SDS011;6062;47.294;12.182;2022-12-18T06:40:22;0.50;;;0.50;;
12005;SDS011;6062;47.294;12.182;2022-12-18T06:42:48;0.70;;;0.50;;
12005;SDS011;6062;47.294;12.182;2022-12-18T06:45:14;0.70;;;0.70;;
12005;SDS011;6062;47.294;12.182;2022-12-18T06:47:39;0.60;;;0.60;;
12005;SDS011;6062;47.294;12.182;2022-12-18T06:50:05;0.60;;;0.60;;
12005;SDS011;6062;47.294;12.182;2022-12-18T06:52:32;0.50;;;0.50;;
12005;SDS011;6062;47.294;12.182;2022-12-18T06:54:59;0.73;;;0.63;;
12005;SDS011;6062;47.294;12.182;2022-12-18T06:57:25;0.50;;;0.50;;
12005;SDS011;6062;47.294;12.182;2022-12-18T06:59:51;0.50;;;0.50;;
12005;SDS011;6062;47.294;12.182;2022-12-18T07:02:16;0.70;;;0.70;;
12005;SDS011;6062;47.294;12.182;2022-12-18T07:04:42;0.60;;;0.60;;
12005;SDS011;6062;47.294;12.182;2022-12-18T07:07:08;0.63;;;0.63;;
12005;SDS011;6062;47.294;12.182;2022-12-18T07:09:33;0.70;;;0.70;;
12005;SDS011;6062;47.294;12.182;2022-12-18T07:11:59;0.73;;;0.73;;
12005;SDS011;6062;47.294;12.182;2022-12-18T07:14:25;0.60;;;0.60;;
12005;SDS011;6062;47.294;12.182;2022-12-18T07:16:50;0.60;;;0.60;;
12005;SDS011;6062;47.294;12.182;2022-12-18T07:19:16;0.73;;;0.70;;
12005;SDS011;6062;47.294;12.182;2022-12-18T07:21:42;0.70;;;0.70;;
12005;SDS011;6062;47.294;12.182;2022-12-18T07:24:07;0.60;;;0.60;;
12005;SDS011;6062;47.294;12.182;2022-12-18T07:26:33;0.70;;;0.70;;
12005;SDS011;6062;47.294;12.182;2022-12-18T07:28:59;0.70;;;0.70;;
12005;SDS011;6062;47.294;12.182;2022-12-18T07:31:24;0.70;;;0.70;;
12005;SDS011;6062;47.294;12.182;2022-12-18T07:33:51;0.50;;;0.50;;
12005;SDS011;6062;47.294;12.182;2022-12-18T07:36:17;1.40;;;0.60;;
12005;SDS011;6062;47.294;12.182;2022-12-18T07:38:48;0.50;;;0.50;;
12005;SDS011;6062;47.294;12.182;2022-12-18T07:41:15;0.57;;;0.57;;
12005;SDS011;6062;47.294;12.182;2022-12-18T07:43:41;0.70;;;0.70;;
12005;SDS011;6062;47.294;12.182;2022-12-18T07:46:07;0.80;;;0.80;;
12005;SDS011;6062;47.294;12.182;2022-12-18T07:48:35;0.60;;;0.60;;
12005;SDS011;6062;47.294;12.182;2022-12-18T07:51:04;0.60;;;0.60;;
12005;SDS011;6062;47.294;12.182;2022-12-18T07:53:32;0.60;;;0.60;;
12005;SDS011;6062;47.294;12.182;2022-12-18T07:56:01;0.60;;;0.60;;
12005;SDS011;6062;47.294;12.182;2022-12-18T07:58:32;0.60;;;0.60;;
12005;SDS011;6062;47.294;12.182;2022-12-18T08:01:04;0.70;;;0.70;;
12005;SDS011;6062;47.294;12.182;2022-12-18T08:03:31;0.70;;;0.70;;
12005;SDS011;6062;47.294;12.182;2022-12-18T08:06:04;0.70;;;0.70;;
12005;SDS011;6062;47.294;12.182;2022-12-18T08:08:32;0.50;;;0.50;;
12005;SDS011;6062;47.294;12.182;2022-12-18T08:10:59;0.70;;;0.70;;
12005;SDS011;6062;47.294;12.182;2022-12-18T08:13:25;0.70;;;0.70;;
12005;SDS011;6062;47.294;12.182;2022-12-18T08:15:59;0.83;;;0.70;;
12005;SDS011;6062;47.294;12.182;2022-12-18T08:18:27;0.60;;;0.60;;
12005;SDS011;6062;47.294;12.182;2022-12-18T08:20:54;0.40;;;0.40;;
12005;SDS011;6062;47.294;12.182;2022-12-18T08:23:21;0.63;;;0.43;;
12005;SDS011;6062;47.294;12.182;2022-12-18T08:25:47;0.50;;;0.50;;
12005;SDS011;6062;47.294;12.182;2022-12-18T08:28:12;0.47;;;0.47;;
12005;SDS011;6062;47.294;12.182;2022-12-18T08:30:41;0.50;;;0.50;;
12005;SDS011;6062;47.294;12.182;2022-12-18T08:33:07;0.50;;;0.50;;
12005;SDS011;6062;47.294;12.182;2022-12-18T08:35:36;0.52;;;0.50;;
12005;SDS011;6062;47.294;12.182;2022-12-18T08:38:01;0.60;;;0.50;;
12005;SDS011;6062;47.294;12.182;2022-12-18T08:40:28;0.50;;;0.50;;
12005;SDS011;6062;47.294;12.182;2022-12-18T08:42:54;0.70;;;0.50;;
12005;SDS011;6062;47.294;12.182;2022-12-18T08:45:38;0.50;;;0.50;;
12005;SDS011;6062;47.294;12.182;2022-12-18T08:48:04;0.80;;;0.60;;
12005;SDS011;6062;47.294;12.182;2022-12-18T08:50:30;0.47;;;0.22;;
12005;SDS011;6062;47.294;12.182;2022-12-18T08:52:55;0.40;;;0.40;;
12005;SDS011;6062;47.294;12.182;2022-12-18T08:55:21;0.47;;;0.45;;
12005;SDS011;6062;47.294;12.182;2022-12-18T08:57:50;0.30;;;0.30;;
12005;SDS011;6062;47.294;12.182;2022-12-18T09:00:15;0.40;;;0.40;;
12005;SDS011;6062;47.294;12.182;2022-12-18T09:02:41;0.30;;;0.30;;
12005;SDS011;6062;47.294;12.182;2022-12-18T09:05:07;1.35;;;0.30;;
12005;SDS011;6062;47.294;12.182;2022-12-18T09:07:33;0.50;;;0.45;;
12005;SDS011;6062;47.294;12.182;2022-12-18T09:09:59;0.57;;;0.40;;
12005;SDS011;6062;47.294;12.182;2022-12-18T09:12:25;0.40;;;0.40;;
12005;SDS011;6062;47.294;12.182;2022-12-18T09:14:51;0.30;;;0.30;;
12005;SDS011;6062;47.294;12.182;2022-12-18T09:17:16;0.30;;;0.30;;
12005;SDS011;6062;47.294;12.182;2022-12-18T09:19:42;0.47;;;0.38;;
12005;SDS011;6062;47.294;12.182;2022-12-18T09:22:08;0.30;;;0.30;;
12005;SDS011;6062;47.294;12.182;2022-12-18T09:24:34;0.32;;;0.20;;
12005;SDS011;6062;47.294;12.182;2022-12-18T09:27:00;0.40;;;0.40;;
12005;SDS011;6062;47.294;12.182;2022-12-18T09:29:26;0.35;;;0.35;;
12005;SDS011;6062;47.294;12.182;2022-12-18T09:31:51;0.20;;;0.20;;
12005;SDS011;6062;47.294;12.182;2022-12-18T09:34:17;0.40;;;0.40;;
12005;SDS011;6062;47.294;12.182;2022-12-18T09:36:45;0.32;;;0.32;;
12005;SDS011;6062;47.294;12.182;2022-12-18T09:39:11;0.30;;;0.30;;
12005;SDS011;6062;47.294;12.182;2022-12-18T09:44:24;0.60;;;0.30;;
12005;SDS011;6062;47.294;12.182;2022-12-18T09:47:08;0.30;;;0.30;;
12005;SDS011;6062;47.294;12.182;2022-12-18T09:49:59;0.75;;;0.30;;
12005;SDS011;6062;47.294;12.182;2022-12-18T09:52:37;0.40;;;0.40;;
12005;SDS011;6062;47.294;12.182;2022-12-18T10:00:55;0.30;;;0.30;;
12005;SDS011;6062;47.294;12.182;2022-12-18T10:03:21;0.85;;;0.30;;
12005;SDS011;6062;47.294;12.182;2022-12-18T10:06:08;0.28;;;0.28;;
12005;SDS011;6062;47.294;12.182;2022-12-18T10:08:59;0.40;;;0.38;;
12005;SDS011;6062;47.294;12.182;2022-12-18T10:20:51;0.40;;;0.38;;
12005;SDS011;6062;47.294;12.182;2022-12-18T10:23:28;0.35;;;0.32;;
12005;SDS011;6062;47.294;12.182;2022-12-18T10:26:11;0.28;;;0.28;;
12005;SDS011;6062;47.294;12.182;2022-12-18T10:28:38;0.30;;;0.30;;
12005;SDS011;6062;47.294;12.182;2022-12-18T10:31:06;0.52;;;0.45;;
12005;SDS011;6062;47.294;12.182;2022-12-18T10:33:55;0.40;;;0.40;;
12005;SDS011;6062;47.294;12.182;2022-12-18T10:36:21;0.30;;;0.30;;
12005;SDS011;6062;47.294;12.182;2022-12-18T10:38:48;0.30;;;0.30;;
12005;SDS011;6062;47.294;12.182;2022-12-18T10:43:43;0.30;;;0.30;;
12005;SDS011;6062;47.294;12.182;2022-12-18T10:51:23;0.40;;;0.40;;
12005;SDS011;6062;47.294;12.182;2022-12-18T10:54:05;0.30;;;0.30;;
12005;SDS011;6062;47.294;12.182;2022-12-18T10:56:41;0.50;;;0.40;;
12005;SDS011;6062;47.294;12.182;2022-12-18T10:59:07;0.55;;;0.43;;
12005;SDS011;6062;47.294;12.182;2022-12-18T11:07:01;0.40;;;0.32;;
12005;SDS011;6062;47.294;12.182;2022-12-18T11:09:33;0.30;;;0.30;;
12005;SDS011;6062;47.294;12.182;2022-12-18T11:12:18;0.43;;;0.40;;
12005;SDS011;6062;47.294;12.182;2022-12-18T11:14:48;0.40;;;0.40;;
12005;SDS011;6062;47.294;12.182;2022-12-18T11:17:37;0.40;;;0.40;;
12005;SDS011;6062;47.294;12.182;2022-12-18T11:20:06;0.30;;;0.30;;
12005;SDS011;6062;47.294;12.182;2022-12-18T11:23:01;0.40;;;0.40;;
12005;SDS011;6062;47.294;12.182;2022-12-18T11:25:31;0.30;;;0.30;;
12005;SDS011;6062;47.294;12.182;2022-12-18T11:28:05;0.50;;;0.50;;
12005;SDS011;6062;47.294;12.182;2022-12-18T11:30:55;0.30;;;0.30;;
12005;SDS011;6062;47.294;12.182;2022-12-18T11:36:36;0.50;;;0.35;;
12005;SDS011;6062;47.294;12.182;2022-12-18T11:41:59;0.30;;;0.30;;
12005;SDS011;6062;47.294;12.182;2022-12-18T11:50:37;0.50;;;0.50;;
12005;SDS011;6062;47.294;12.182;2022-12-18T11:53:17;0.30;;;0.30;;
12005;SDS011;6062;47.294;12.182;2022-12-18T11:58:45;0.40;;;0.40;;
12005;SDS011;6062;47.294;12.182;2022-12-18T12:07:43;0.30;;;0.30;;
12005;SDS011;6062;47.294;12.182;2022-12-18T12:23:53;0.35;;;0.35;;
12005;SDS011;6062;47.294;12.182;2022-12-18T12:26:44;0.35;;;0.35;;
12005;SDS011;6062;47.294;12.182;2022-12-18T12:32:25;0.40;;;0.40;;
12005;SDS011;6062;47.294;12.182;2022-12-18T12:35:23;0.75;;;0.50;;
12005;SDS011;6062;47.294;12.182;2022-12-18T12:41:16;0.40;;;0.40;;
12005;SDS011;6062;47.294;12.182;2022-12-18T12:44:08;0.43;;;0.43;;
12005;SDS011;6062;47.294;12.182;2022-12-18T12:46:42;0.45;;;0.45;;
12005;SDS011;6062;47.294;12.182;2022-12-18T12:49:13;0.40;;;0.40;;
12005;SDS011;6062;47.294;12.182;2022-12-18T12:51:49;1.30;;;0.55;;
12005;SDS011;6062;47.294;12.182;2022-12-18T12:54:28;0.65;;;0.60;;
12005;SDS011;6062;47.294;12.182;2022-12-18T12:57:07;0.73;;;0.50;;
12005;SDS011;6062;47.294;12.182;2022-12-18T12:59:51;0.73;;;0.60;;
12005;SDS011;6062;47.294;12.182;2022-12-18T13:02:39;0.40;;;0.40;;
12005;SDS011;6062;47.294;12.182;2022-12-18T13:08:03;0.55;;;0.55;;
12005;SDS011;6062;47.294;12.182;2022-12-18T13:10:36;0.47;;;0.47;;
12005;SDS011;6062;47.294;12.182;2022-12-18T13:13:11;0.63;;;0.55;;
12005;SDS011;6062;47.294;12.182;2022-12-18T13:18:35;0.88;;;0.70;;
12005;SDS011;6062;47.294;12.182;2022-12-18T13:21:44;0.65;;;0.65;;
12005;SDS011;6062;47.294;12.182;2022-12-18T13:23:54;0.63;;;0.63;;
12005;SDS011;6062;47.294;12.182;2022-12-18T13:28:52;0.70;;;0.70;;
12005;SDS011;6062;47.294;12.182;2022-12-18T13:34:04;0.70;;;0.70;;
12005;SDS011;6062;47.294;12.182;2022-12-18T13:36:49;0.63;;;0.63;;
12005;SDS011;6062;47.294;12.182;2022-12-18T13:41:48;0.67;;;0.67;;
12005;SDS011;6062;47.294;12.182;2022-12-18T13:44:54;0.70;;;0.70;;
12005;SDS011;6062;47.294;12.182;2022-12-18T13:50:22;0.70;;;0.70;;
12005;SDS011;6062;47.294;12.182;2022-12-18T13:52:50;1.47;;;0.83;;
12005;SDS011;6062;47.294;12.182;2022-12-18T13:55:18;0.90;;;0.70;;
12005;SDS011;6062;47.294;12.182;2022-12-18T13:57:45;0.70;;;0.70;;
12005;SDS011;6062;47.294;12.182;2022-12-18T14:00:27;0.80;;;0.80;;
12005;SDS011;6062;47.294;12.182;2022-12-18T14:02:55;0.70;;;0.60;;
12005;SDS011;6062;47.294;12.182;2022-12-18T14:08:03;0.83;;;0.63;;
12005;SDS011;6062;47.294;12.182;2022-12-18T14:10:45;0.70;;;0.70;;
12005;SDS011;6062;47.294;12.182;2022-12-18T14:13:21;0.60;;;0.60;;
12005;SDS011;6062;47.294;12.182;2022-12-18T14:16:07;0.50;;;0.50;;
12005;SDS011;6062;47.294;12.182;2022-12-18T14:18:46;0.80;;;0.80;;
12005;SDS011;6062;47.294;12.182;2022-12-18T14:21:23;0.60;;;0.60;;
12005;SDS011;6062;47.294;12.182;2022-12-18T14:26:44;0.70;;;0.70;;
12005;SDS011;6062;47.294;12.182;2022-12-18T14:32:14;0.70;;;0.70;;
12005;SDS011;6062;47.294;12.182;2022-12-18T14:34:44;0.80;;;0.80;;
12005;SDS011;6062;47.294;12.182;2022-12-18T14:37:16;0.80;;;0.80;;
12005;SDS011;6062;47.294;12.182;2022-12-18T14:39:56;0.70;;;0.70;;
12005;SDS011;6062;47.294;12.182;2022-12-18T14:42:42;0.90;;;0.80;;
12005;SDS011;6062;47.294;12.182;2022-12-18T14:48:07;0.77;;;0.77;;
12005;SDS011;6062;47.294;12.182;2022-12-18T14:50:36;0.93;;;0.90;;
12005;SDS011;6062;47.294;12.182;2022-12-18T14:53:03;0.60;;;0.60;;
12005;SDS011;6062;47.294;12.182;2022-12-18T14:55:29;1.00;;;0.90;;
12005;SDS011;6062;47.294;12.182;2022-12-18T14:57:55;2.00;;;0.80;;
12005;SDS011;6062;47.294;12.182;2022-12-18T15:00:23;0.80;;;0.80;;
12005;SDS011;6062;47.294;12.182;2022-12-18T15:02:52;0.83;;;0.80;;
12005;SDS011;6062;47.294;12.182;2022-12-18T15:05:24;0.77;;;0.77;;
12005;SDS011;6062;47.294;12.182;2022-12-18T15:07:55;0.80;;;0.80;;
12005;SDS011;6062;47.294;12.182;2022-12-18T15:10:26;1.00;;;0.90;;
12005;SDS011;6062;47.294;12.182;2022-12-18T15:18:03;0.70;;;0.70;;
12005;SDS011;6062;47.294;12.182;2022-12-18T15:20:33;0.60;;;0.60;;
12005;SDS011;6062;47.294;12.182;2022-12-18T15:26:13;0.87;;;0.87;;
12005;SDS011;6062;47.294;12.182;2022-12-18T15:28:52;0.70;;;0.70;;
12005;SDS011;6062;47.294;12.182;2022-12-18T15:31:28;1.20;;;0.90;;
12005;SDS011;6062;47.294;12.182;2022-12-18T15:34:13;0.80;;;0.80;;
12005;SDS011;6062;47.294;12.182;2022-12-18T15:36:45;0.77;;;0.77;;
12005;SDS011;6062;47.294;12.182;2022-12-18T15:39:12;0.87;;;0.87;;
12005;SDS011;6062;47.294;12.182;2022-12-18T15:41:38;0.80;;;0.80;;
12005;SDS011;6062;47.294;12.182;2022-12-18T15:47:02;0.93;;;0.90;;
12005;SDS011;6062;47.294;12.182;2022-12-18T15:49:28;0.83;;;0.83;;
12005;SDS011;6062;47.294;12.182;2022-12-18T15:51:54;0.93;;;0.90;;
12005;SDS011;6062;47.294;12.182;2022-12-18T15:54:24;0.80;;;0.80;;
12005;SDS011;6062;47.294;12.182;2022-12-18T15:57:12;1.53;;;0.70;;
12005;SDS011;6062;47.294;12.182;2022-12-18T15:59:54;0.80;;;0.80;;
12005;SDS011;6062;47.294;12.182;2022-12-18T16:02:24;1.07;;;0.90;;
12005;SDS011;6062;47.294;12.182;2022-12-18T16:04:51;0.80;;;0.80;;
12005;SDS011;6062;47.294;12.182;2022-12-18T16:07:18;0.80;;;0.80;;
12005;SDS011;6062;47.294;12.182;2022-12-18T16:09:43;0.87;;;0.87;;
12005;SDS011;6062;47.294;12.182;2022-12-18T16:12:14;0.87;;;0.87;;
12005;SDS011;6062;47.294;12.182;2022-12-18T16:14:49;0.80;;;0.80;;
12005;SDS011;6062;47.294;12.182;2022-12-18T16:17:15;0.80;;;0.80;;
12005;SDS011;6062;47.294;12.182;2022-12-18T16:19:41;1.00;;;0.90;;
12005;SDS011;6062;47.294;12.182;2022-12-18T16:22:19;1.10;;;1.00;;
12005;SDS011;6062;47.294;12.182;2022-12-18T16:24:48;1.00;;;0.90;;
12005;SDS011;6062;47.294;12.182;2022-12-18T16:27:15;1.00;;;0.90;;
12005;SDS011;6062;47.294;12.182;2022-12-18T16:29:41;1.10;;;1.00;;
12005;SDS011;6062;47.294;12.182;2022-12-18T16:32:08;1.20;;;1.10;;
12005;SDS011;6062;47.294;12.182;2022-12-18T16:34:44;0.90;;;0.73;;
12005;SDS011;6062;47.294;12.182;2022-12-18T16:37:12;0.80;;;0.80;;
12005;SDS011;6062;47.294;12.182;2022-12-18T16:39:40;1.30;;;1.10;;
12005;SDS011;6062;47.294;12.182;2022-12-18T16:42:09;1.00;;;0.90;;
12005;SDS011;6062;47.294;12.182;2022-12-18T16:44:44;1.00;;;0.90;;
12005;SDS011;6062;47.294;12.182;2022-12-18T16:47:12;0.90;;;0.80;;
12005;SDS011;6062;47.294;12.182;2022-12-18T16:49:38;1.53;;;0.90;;
12005;SDS011;6062;47.294;12.182;2022-12-18T16:52:05;1.43;;;1.00;;
12005;SDS011;6062;47.294;12.182;2022-12-18T16:54:31;0.77;;;0.77;;
12005;SDS011;6062;47.294;12.182;2022-12-18T16:56:59;0.80;;;0.80;;
12005;SDS011;6062;47.294;12.182;2022-12-18T16:59:24;1.03;;;1.00;;
12005;SDS011;6062;47.294;12.182;2022-12-18T17:01:51;0.97;;;0.90;;
12005;SDS011;6062;47.294;12.182;2022-12-18T17:04:17;0.90;;;0.90;;
12005;SDS011;6062;47.294;12.182;2022-12-18T17:06:44;0.90;;;0.90;;
12005;SDS011;6062;47.294;12.182;2022-12-18T17:09:17;1.00;;;0.90;;
12005;SDS011;6062;47.294;12.182;2022-12-18T17:11:49;0.93;;;0.90;;
12005;SDS011;6062;47.294;12.182;2022-12-18T17:14:17;1.10;;;1.00;;
12005;SDS011;6062;47.294;12.182;2022-12-18T17:16:47;0.80;;;0.80;;
12005;SDS011;6062;47.294;12.182;2022-12-18T17:19:13;1.20;;;1.10;;
12005;SDS011;6062;47.294;12.182;2022-12-18T17:21:41;0.80;;;0.80;;